Time;durP1;ratioP1;P1;durP2;ratioP2;P2;SDS_P1;SDS_P2;PMS_P1;PMS_P2;Temp;Humidity;BMP_temperature;BMP_pressure;BME280_temperature;BME280_humidity;BME280_pressure;Samples;Min_cycle;Max_cycle;Signal;HPM_P1;HPM_P2
2022/01/11 00:01:19;;;;;;;1.00;1.00;;;-0.30;99.90;;;;;;5078142;28;20119;-82
2022/01/11 00:03:45;;;;;;;0.80;0.80;;;-0.30;99.90;;;;;;5059683;28;20449;-82
2022/01/11 00:08:39;;;;;;;0.93;0.93;;;-0.30;99.90;;;;;;5074275;28;20041;-82
2022/01/11 00:11:05;;;;;;;0.90;0.90;;;-0.40;99.90;;;;;;5058584;28;20347;-83
2022/01/11 00:13:36;;;;;;;0.90;0.90;;;-0.40;99.90;;;;;;5081318;28;20047;-83
2022/01/11 00:16:03;;;;;;;0.80;0.80;;;-0.40;99.90;;;;;;5075825;28;20097;-82
2022/01/11 00:18:29;;;;;;;1.23;1.13;;;-0.40;99.90;;;;;;5074701;28;20044;-82
2022/01/11 00:20:55;;;;;;;1.00;1.00;;;-0.50;99.90;;;;;;5077305;28;20462;-82
2022/01/11 00:25:51;;;;;;;1.55;1.45;;;-0.60;99.90;;;;;;5063768;28;20706;-83
2022/01/11 00:28:18;;;;;;;1.42;1.33;;;-0.60;99.90;;;;;;5075298;28;20049;-83
2022/01/11 00:30:45;;;;;;;1.00;1.00;;;-0.60;99.90;;;;;;5071680;28;20037;-83
2022/01/11 00:33:16;;;;;;;1.30;1.20;;;-0.60;99.90;;;;;;5082159;28;20123;-82
2022/01/11 00:36:02;;;;;;;1.92;1.25;;;-0.70;99.90;;;;;;5073783;28;20033;-82
2022/01/11 00:38:33;;;;;;;0.90;0.90;;;-0.70;99.90;;;;;;5060983;28;20041;-82
2022/01/11 00:41:02;;;;;;;1.40;1.30;;;-0.70;99.90;;;;;;5077565;28;20055;-82
2022/01/11 00:43:29;;;;;;;0.88;0.88;;;-0.60;99.90;;;;;;5076546;28;20124;-82
2022/01/11 00:45:56;;;;;;;1.00;1.00;;;-0.60;99.90;;;;;;5081142;28;20040;-82
2022/01/11 00:48:22;;;;;;;1.38;1.27;;;-0.90;99.90;;;;;;5082858;28;20058;-83
2022/01/11 00:50:48;;;;;;;1.35;1.25;;;-0.90;99.90;;;;;;5067670;28;20048;-82
2022/01/11 00:53:15;;;;;;;1.30;1.20;;;-0.90;99.90;;;;;;5075078;28;20033;-81
2022/01/11 00:55:40;;;;;;;0.80;0.80;;;-1.00;99.90;;;;;;5090495;28;20089;-82
2022/01/11 00:58:06;;;;;;;1.75;1.63;;;-1.00;99.90;;;;;;5062749;28;20107;-82
2022/01/11 01:00:34;;;;;;;5.40;1.48;;;-1.00;99.90;;;;;;5072334;28;20067;-82
2022/01/11 01:03:00;;;;;;;0.90;0.90;;;-0.90;99.90;;;;;;5073712;28;20072;-82
2022/01/11 01:05:27;;;;;;;1.20;1.20;;;-1.00;99.90;;;;;;5077588;28;20036;-82
2022/01/11 01:07:52;;;;;;;1.52;1.42;;;-1.00;99.90;;;;;;5079580;28;20040;-82
2022/01/11 01:10:35;;;;;;;0.95;0.95;;;-1.10;99.90;;;;;;5072267;28;20047;-82
2022/01/11 01:13:04;;;;;;;0.90;0.90;;;-1.10;99.90;;;;;;5059742;28;20044;-82
2022/01/11 01:15:30;;;;;;;1.30;1.20;;;-1.00;99.90;;;;;;5075698;28;20093;-82
2022/01/11 01:17:56;;;;;;;1.05;1.05;;;-0.50;99.90;;;;;;5079287;28;20040;-81
2022/01/11 01:20:22;;;;;;;1.10;1.10;;;-1.10;99.90;;;;;;5078151;28;20036;-82
2022/01/11 01:22:50;;;;;;;1.38;1.27;;;-1.20;99.90;;;;;;5078472;28;20078;-82
2022/01/11 01:25:20;;;;;;;1.10;1.10;;;-1.10;99.90;;;;;;5068442;28;20052;-82
2022/01/11 01:27:47;;;;;;;0.90;0.90;;;-1.20;99.90;;;;;;5055487;28;20071;-82
2022/01/11 01:30:13;;;;;;;0.90;0.90;;;-1.20;99.90;;;;;;5077596;28;20135;-82
2022/01/11 01:32:38;;;;;;;0.98;0.98;;;-1.10;99.90;;;;;;5071455;28;20041;-82
2022/01/11 01:35:05;;;;;;;1.67;1.10;;;-1.10;99.90;;;;;;5069894;28;20047;-82
2022/01/11 01:37:31;;;;;;;0.90;0.90;;;-1.20;99.90;;;;;;5074389;28;20052;-82
2022/01/11 01:39:57;;;;;;;0.98;0.98;;;-1.10;99.90;;;;;;5069575;28;20389;-82
2022/01/11 01:42:29;;;;;;;1.95;1.80;;;-1.10;99.90;;;;;;5059941;28;20029;-82
2022/01/11 01:44:56;;;;;;;0.95;0.95;;;;;;;;;;5078768;28;20037;-82
2022/01/11 01:47:21;;;;;;;0.90;0.90;;;-1.10;99.90;;;;;;5079212;28;20047;-82
2022/01/11 01:49:47;;;;;;;1.42;1.38;;;-1.10;99.90;;;;;;5073869;28;20041;-82
2022/01/11 01:52:14;;;;;;;1.35;1.25;;;-1.10;99.90;;;;;;5077550;28;20044;-82
2022/01/11 01:54:42;;;;;;;1.65;1.13;;;-1.20;99.90;;;;;;5068069;28;20045;-83
2022/01/11 01:57:08;;;;;;;0.93;0.93;;;-1.10;99.90;;;;;;5077993;28;20040;-82
2022/01/11 01:59:34;;;;;;;0.90;0.90;;;-1.10;99.90;;;;;;5076166;28;20076;-82
2022/01/11 02:02:00;;;;;;;1.00;1.00;;;-1.10;99.90;;;;;;5079878;28;20044;-82
2022/01/11 02:04:26;;;;;;;1.77;1.67;;;-1.00;99.90;;;;;;5055769;28;20041;-82
2022/01/11 02:06:52;;;;;;;0.90;0.90;;;-1.00;99.90;;;;;;5074974;28;20048;-82
2022/01/11 02:09:18;;;;;;;1.00;0.98;;;-1.10;99.90;;;;;;5067188;28;20041;-82
2022/01/11 02:11:45;;;;;;;1.00;1.00;;;-1.10;99.90;;;;;;5071658;28;20040;-81
2022/01/11 02:14:11;;;;;;;0.90;0.90;;;-1.10;99.90;;;;;;5075547;28;20120;-82
2022/01/11 02:16:37;;;;;;;1.65;1.55;;;-1.10;99.90;;;;;;5070883;28;20049;-82
2022/01/11 02:19:04;;;;;;;1.67;1.58;;;-1.00;99.90;;;;;;5077958;28;20058;-82
2022/01/11 02:21:32;;;;;;;0.95;0.95;;;-1.00;99.90;;;;;;5074208;28;20044;-82
2022/01/11 02:23:59;;;;;;;0.98;0.98;;;-1.10;99.90;;;;;;5080047;28;20119;-82
2022/01/11 02:26:25;;;;;;;1.38;1.30;;;-1.10;99.90;;;;;;5073351;28;20344;-83
2022/01/11 02:28:51;;;;;;;2.40;1.88;;;-0.80;99.90;;;;;;5079435;28;20043;-83
2022/01/11 02:31:17;;;;;;;1.10;1.08;;;-1.00;99.90;;;;;;5075191;28;20048;-83
2022/01/11 02:33:56;;;;;;;1.38;1.27;;;-1.00;99.90;;;;;;5074970;28;20104;-82
2022/01/11 02:36:34;;;;;;;2.45;2.25;;;-0.90;99.90;;;;;;5062521;28;20045;-82
2022/01/11 02:39:00;;;;;;;1.33;1.23;;;-1.10;99.90;;;;;;5062196;28;20059;-83
2022/01/11 02:41:29;;;;;;;1.25;1.15;;;-0.90;99.90;;;;;;5069441;28;20092;-83
2022/01/11 02:43:55;;;;;;;1.75;1.33;;;-1.10;99.90;;;;;;5072423;28;20033;-83
2022/01/11 02:46:22;;;;;;;1.02;1.00;;;-1.10;99.90;;;;;;5058069;28;20036;-83
2022/01/11 02:48:48;;;;;;;1.50;1.40;;;-1.10;99.90;;;;;;5078644;28;20044;-83
2022/01/11 02:51:17;;;;;;;1.00;1.00;;;-1.00;99.90;;;;;;5078358;28;20059;-83
2022/01/11 02:53:45;;;;;;;0.82;0.82;;;-1.00;99.90;;;;;;5077736;28;20036;-82
2022/01/11 02:56:12;;;;;;;1.40;1.30;;;-1.00;99.90;;;;;;5075112;28;20036;-83
2022/01/11 02:58:38;;;;;;;1.30;1.20;;;-1.00;99.90;;;;;;5073039;28;20071;-82
2022/01/11 03:01:05;;;;;;;1.02;1.02;;;-1.00;99.90;;;;;;5075105;28;20041;-82
2022/01/11 03:03:31;;;;;;;0.90;0.90;;;-0.80;99.90;;;;;;5052218;28;20100;-82
2022/01/11 03:06:00;;;;;;;1.00;1.00;;;-0.90;99.90;;;;;;5073863;28;20119;-83
2022/01/11 03:08:30;;;;;;;1.27;1.17;;;-0.80;99.90;;;;;;5077867;28;20045;-82
2022/01/11 03:10:56;;;;;;;1.00;0.95;;;-0.90;99.90;;;;;;5075961;28;20076;-82
2022/01/11 03:13:22;;;;;;;1.00;1.00;;;-0.90;99.90;;;;;;5055290;28;20032;-82
2022/01/11 03:15:49;;;;;;;1.13;1.02;;;-0.90;99.90;;;;;;5077018;28;20697;-82
2022/01/11 03:18:15;;;;;;;1.10;1.10;;;-0.80;99.90;;;;;;5073696;28;20087;-82
2022/01/11 03:20:43;;;;;;;1.20;1.15;;;-0.80;99.90;;;;;;5074671;28;20059;-82
2022/01/11 03:23:09;;;;;;;1.27;1.23;;;-0.80;99.90;;;;;;5061799;28;20045;-83
2022/01/11 03:25:35;;;;;;;1.38;1.27;;;-0.80;99.90;;;;;;5066378;28;20143;-83
2022/01/11 03:28:02;;;;;;;1.30;1.20;;;-0.80;99.90;;;;;;5076516;28;20147;-82
2022/01/11 03:30:28;;;;;;;0.80;0.80;;;-0.80;99.90;;;;;;5073629;28;20404;-82
2022/01/11 03:32:54;;;;;;;0.90;0.90;;;-0.70;99.90;;;;;;5052291;28;20049;-83
2022/01/11 03:35:20;;;;;;;0.80;0.80;;;-0.80;99.90;;;;;;5073721;28;20041;-83
2022/01/11 03:37:47;;;;;;;2.65;2.45;;;-0.70;99.90;;;;;;5078918;28;20056;-82
2022/01/11 03:40:17;;;;;;;0.98;0.98;;;-0.70;99.90;;;;;;5076051;28;20075;-82
2022/01/11 03:42:44;;;;;;;1.00;1.00;;;-0.70;99.90;;;;;;5074956;28;20045;-82
2022/01/11 03:45:11;;;;;;;1.10;1.10;;;-0.80;99.90;;;;;;5059253;28;20406;-82
2022/01/11 03:47:37;;;;;;;1.33;1.23;;;-0.80;99.90;;;;;;5080281;28;20041;-83
2022/01/11 03:50:05;;;;;;;1.02;0.90;;;-0.80;99.90;;;;;;5055099;28;20041;-82
2022/01/11 03:52:31;;;;;;;1.30;1.20;;;-0.70;99.90;;;;;;5070274;28;20640;-82
2022/01/11 03:57:30;;;;;;;0.95;0.95;;;-0.80;99.90;;;;;;5078290;28;20052;-82
2022/01/11 03:59:58;;;;;;;2.08;1.90;;;-0.70;99.90;;;;;;5072778;28;20094;-82
2022/01/11 04:02:24;;;;;;;1.02;1.02;;;-0.80;99.90;;;;;;5076461;28;20095;-82
2022/01/11 04:04:53;;;;;;;0.75;0.75;;;-0.80;99.90;;;;;;5078736;28;20119;-83
2022/01/11 04:07:20;;;;;;;0.90;0.90;;;-0.80;99.90;;;;;;5073055;28;20040;-82
2022/01/11 04:09:46;;;;;;;2.00;1.65;;;-0.70;99.90;;;;;;5073975;28;20048;-82
2022/01/11 04:12:13;;;;;;;0.93;0.93;;;-0.60;99.90;;;;;;5078788;28;20047;-83
2022/01/11 04:14:38;;;;;;;1.25;1.15;;;-0.70;99.90;;;;;;5079895;28;20401;-82
2022/01/11 04:17:04;;;;;;;0.85;0.85;;;-0.70;99.90;;;;;;5058897;28;20044;-82
2022/01/11 04:19:30;;;;;;;1.20;1.17;;;-0.80;99.90;;;;;;5072485;28;20059;-82
2022/01/11 04:21:55;;;;;;;3.72;1.77;;;-0.70;99.90;;;;;;5071656;28;20079;-82
2022/01/11 04:24:21;;;;;;;1.90;1.80;;;-0.80;99.90;;;;;;5076114;28;20077;-82
2022/01/11 04:26:47;;;;;;;0.90;0.90;;;-0.60;99.90;;;;;;5079732;28;20053;-82
2022/01/11 04:29:12;;;;;;;0.95;0.95;;;-0.70;99.90;;;;;;5063574;28;20063;-82
2022/01/11 04:31:39;;;;;;;1.33;1.23;;;;;;;;;;5080756;28;20068;-83
2022/01/11 04:34:04;;;;;;;1.05;1.05;;;-0.70;99.90;;;;;;5081229;28;20512;-79
2022/01/11 04:36:30;;;;;;;1.48;1.35;;;-0.70;99.90;;;;;;5071820;28;20037;-80
2022/01/11 04:38:55;;;;;;;1.77;1.67;;;-0.70;99.90;;;;;;5071146;28;20146;-81
2022/01/11 04:41:21;;;;;;;1.13;1.05;;;-0.70;99.90;;;;;;5057641;28;20067;-81
2022/01/11 04:43:47;;;;;;;1.60;1.50;;;-0.60;99.90;;;;;;5079251;28;20037;-81
2022/01/11 04:46:18;;;;;;;5.47;2.30;;;-0.50;99.90;;;;;;5071059;28;20044;-81
2022/01/11 04:48:44;;;;;;;1.08;1.08;;;-0.70;99.90;;;;;;5068882;28;20041;-81
2022/01/11 04:51:09;;;;;;;1.20;1.10;;;-0.70;99.90;;;;;;5080245;28;20109;-81
2022/01/11 04:53:35;;;;;;;0.90;0.90;;;-0.80;99.90;;;;;;5075177;28;20227;-81
2022/01/11 04:56:02;;;;;;;1.13;1.13;;;-0.80;99.90;;;;;;5070036;28;20052;-81
2022/01/11 04:58:27;;;;;;;1.50;1.40;;;-0.80;99.90;;;;;;5076901;28;20048;-81
2022/01/11 05:00:53;;;;;;;1.20;1.10;;;-0.80;99.90;;;;;;5079120;28;20044;-81
2022/01/11 05:03:19;;;;;;;1.00;1.00;;;-0.80;99.90;;;;;;5071105;28;20040;-81
2022/01/11 05:05:45;;;;;;;1.00;1.00;;;-0.90;99.90;;;;;;5069612;28;20468;-81
2022/01/11 05:08:11;;;;;;;1.17;1.10;;;-0.90;99.90;;;;;;5074422;28;20033;-81
2022/01/11 05:10:42;;;;;;;1.02;1.02;;;-0.80;99.90;;;;;;5074090;28;20037;-81
2022/01/11 05:13:11;;;;;;;1.27;1.17;;;-0.90;99.90;;;;;;5072869;28;20052;-81
2022/01/11 05:15:37;;;;;;;2.20;1.67;;;-0.90;99.90;;;;;;5074853;28;20096;-81
2022/01/11 05:18:03;;;;;;;1.20;1.17;;;-0.70;99.90;;;;;;5080391;28;20468;-82
2022/01/11 05:20:29;;;;;;;1.33;1.23;;;-0.90;99.90;;;;;;5072331;28;20141;-81
2022/01/11 05:22:54;;;;;;;1.00;1.00;;;-0.30;99.90;;;;;;5078495;28;20092;-81
2022/01/11 05:25:20;;;;;;;1.13;1.10;;;-0.80;99.90;;;;;;5080745;28;20074;-81
2022/01/11 05:27:47;;;;;;;1.50;1.40;;;-0.90;99.90;;;;;;5073850;28;20082;-81
2022/01/11 05:30:13;;;;;;;0.90;0.90;;;-0.90;99.90;;;;;;5077547;28;20068;-81
2022/01/11 05:32:41;;;;;;;1.35;1.20;;;-0.90;99.90;;;;;;5077349;28;20064;-81
2022/01/11 05:35:08;;;;;;;1.38;1.27;;;-0.90;99.90;;;;;;5079811;28;20090;-81
2022/01/11 05:37:34;;;;;;;1.17;1.10;;;-0.90;99.90;;;;;;5069374;28;20497;-82
2022/01/11 05:40:00;;;;;;;0.93;0.93;;;-0.70;99.90;;;;;;5074818;28;20048;-81
2022/01/11 05:42:26;;;;;;;2.05;1.35;;;-0.90;99.90;;;;;;5081049;28;20124;-81
2022/01/11 05:44:52;;;;;;;1.10;1.00;;;-0.90;99.90;;;;;;5075965;28;20041;-81
2022/01/11 05:47:18;;;;;;;1.27;1.17;;;-0.90;99.90;;;;;;5076671;28;20064;-81
2022/01/11 05:49:43;;;;;;;1.77;1.67;;;-0.90;99.90;;;;;;5072492;28;20063;-81
2022/01/11 05:52:09;;;;;;;1.52;1.42;;;-0.90;99.90;;;;;;5077736;28;20047;-81
2022/01/11 05:54:34;;;;;;;1.48;1.38;;;-0.90;99.90;;;;;;5061150;28;20119;-81
2022/01/11 05:57:01;;;;;;;2.45;2.13;;;-0.50;99.90;;;;;;5076656;28;20056;-81
2022/01/11 05:59:26;;;;;;;0.90;0.90;;;-0.40;99.90;;;;;;5073806;28;20090;-81
2022/01/11 06:01:52;;;;;;;1.25;1.15;;;-0.90;99.90;;;;;;5080330;28;20036;-81
2022/01/11 06:04:17;;;;;;;1.45;1.35;;;-0.80;99.90;;;;;;5066787;28;20048;-81
2022/01/11 06:06:43;;;;;;;6.07;1.33;;;;;;;;;;5079443;28;20090;-81
2022/01/11 06:09:09;;;;;;;1.45;1.35;;;-0.90;99.90;;;;;;5069234;28;20079;-81
2022/01/11 06:11:34;;;;;;;1.20;1.10;;;-0.90;99.90;;;;;;5074079;28;20071;-81
2022/01/11 06:14:00;;;;;;;0.95;0.93;;;-1.00;99.90;;;;;;5073800;28;20381;-81
2022/01/11 06:16:26;;;;;;;2.60;2.38;;;-1.00;99.90;;;;;;5078636;28;20045;-81
2022/01/11 06:18:51;;;;;;;1.05;1.05;;;-1.00;99.90;;;;;;5080166;28;20041;-81
2022/01/11 06:21:17;;;;;;;1.67;1.58;;;-1.00;99.90;;;;;;5063748;28;20048;-81
2022/01/11 06:23:43;;;;;;;1.75;1.65;;;-1.00;99.90;;;;;;5077222;28;20053;-81
2022/01/11 06:26:09;;;;;;;3.10;1.58;;;-1.00;99.90;;;;;;5071582;28;20041;-81
2022/01/11 06:28:34;;;;;;;1.63;1.48;;;-1.00;99.90;;;;;;5060711;28;20052;-81
2022/01/11 06:31:00;;;;;;;1.10;1.10;;;-0.90;99.90;;;;;;5081201;28;20048;-81
2022/01/11 06:33:26;;;;;;;1.25;1.23;;;-0.90;99.90;;;;;;5077849;28;20052;-81
2022/01/11 06:35:51;;;;;;;0.90;0.90;;;-1.10;99.90;;;;;;5071014;28;20048;-81
2022/01/11 06:38:17;;;;;;;1.17;1.08;;;-1.10;99.90;;;;;;5076127;28;20044;-81
2022/01/11 06:40:43;;;;;;;4.57;1.67;;;-1.00;99.90;;;;;;5065056;28;20040;-82
2022/01/11 06:43:09;;;;;;;1.35;1.25;;;-1.10;99.90;;;;;;5081221;28;20037;-81
2022/01/11 06:45:35;;;;;;;1.17;1.13;;;-1.10;99.90;;;;;;5065062;28;20052;-82
2022/01/11 06:48:00;;;;;;;0.95;0.95;;;-1.00;99.90;;;;;;5063274;28;20037;-81
2022/01/11 06:50:27;;;;;;;1.25;1.17;;;-1.10;99.90;;;;;;5061486;28;20098;-82
2022/01/11 06:52:53;;;;;;;1.13;1.13;;;-1.10;99.90;;;;;;5071122;28;20077;-83
2022/01/11 06:55:19;;;;;;;0.85;0.85;;;-1.10;99.90;;;;;;5073795;28;20036;-81
2022/01/11 06:57:46;;;;;;;2.50;2.40;;;-1.10;99.90;;;;;;5063818;28;20229;-82
2022/01/11 07:00:12;;;;;;;1.27;1.23;;;-1.20;99.90;;;;;;5063142;28;20037;-82
2022/01/11 07:02:38;;;;;;;0.90;0.90;;;-1.10;99.90;;;;;;5048601;28;20045;-81
2022/01/11 07:05:05;;;;;;;2.40;2.20;;;-1.10;99.90;;;;;;5075135;28;20050;-81
2022/01/11 07:07:31;;;;;;;0.90;0.90;;;-1.10;99.90;;;;;;5067186;28;20040;-81
2022/01/11 07:09:56;;;;;;;1.23;1.20;;;-1.10;99.90;;;;;;5063813;28;20048;-81
2022/01/11 07:12:22;;;;;;;1.67;1.58;;;-1.10;99.90;;;;;;5077536;28;20048;-83
2022/01/11 07:14:48;;;;;;;2.45;1.80;;;-1.00;99.90;;;;;;5076276;28;20044;-82
2022/01/11 07:17:15;;;;;;;1.58;1.48;;;-1.10;99.90;;;;;;5082917;28;20068;-82
2022/01/11 07:19:41;;;;;;;1.70;1.60;;;-1.10;99.90;;;;;;5078722;28;20453;-81
2022/01/11 07:22:07;;;;;;;1.23;1.13;;;-1.10;99.90;;;;;;5077717;28;20079;-82
2022/01/11 07:24:33;;;;;;;0.90;0.90;;;-1.10;99.90;;;;;;5052321;28;20037;-81
2022/01/11 07:27:00;;;;;;;1.90;1.80;;;-1.10;99.90;;;;;;5068070;28;20846;-80
2022/01/11 07:29:26;;;;;;;0.80;0.80;;;-1.10;99.90;;;;;;5069762;28;20033;-81
2022/01/11 07:31:52;;;;;;;1.05;1.00;;;-1.00;99.90;;;;;;5065960;28;20481;-81
2022/01/11 07:34:18;;;;;;;1.27;1.17;;;-1.10;99.90;;;;;;5077605;28;20044;-80
2022/01/11 07:36:44;;;;;;;1.42;1.33;;;-1.10;99.90;;;;;;5081328;28;20040;-80
2022/01/11 07:39:12;;;;;;;1.33;1.23;;;-1.00;99.90;;;;;;5073345;28;20066;-80
2022/01/11 07:41:38;;;;;;;0.93;0.93;;;-1.00;99.90;;;;;;5066440;28;20064;-81
2022/01/11 07:44:04;;;;;;;2.28;2.10;;;-1.00;99.90;;;;;;5075735;28;20048;-80
2022/01/11 07:46:30;;;;;;;1.27;1.17;;;-1.00;99.90;;;;;;5073926;28;20758;-80
2022/01/11 07:48:57;;;;;;;1.00;1.00;;;-1.00;99.90;;;;;;5082138;28;20087;-81
2022/01/11 07:51:23;;;;;;;0.88;0.88;;;-1.00;99.90;;;;;;5077339;28;20080;-80
2022/01/11 07:53:50;;;;;;;0.93;0.93;;;-0.90;99.90;;;;;;5078705;28;20044;-81
2022/01/11 07:56:16;;;;;;;0.75;0.75;;;-0.90;99.90;;;;;;5078552;28;20045;-81
2022/01/11 07:58:41;;;;;;;1.63;1.52;;;-0.90;99.90;;;;;;5074172;28;20547;-80
2022/01/11 08:01:07;;;;;;;1.33;1.23;;;-0.90;99.90;;;;;;5065079;28;20089;-80
2022/01/11 08:03:33;;;;;;;1.00;1.00;;;-0.90;99.90;;;;;;5068935;28;20105;-79
2022/01/11 08:05:58;;;;;;;1.20;1.10;;;-0.80;99.90;;;;;;5071817;28;20048;-84
2022/01/11 08:08:24;;;;;;;1.35;1.25;;;-0.80;99.90;;;;;;5056423;28;20481;-83
2022/01/11 08:10:50;;;;;;;0.90;0.90;;;-0.80;99.90;;;;;;5076624;28;20060;-82
2022/01/11 08:13:16;;;;;;;1.00;1.00;;;-0.80;99.90;;;;;;5071834;28;20039;-81
2022/01/11 08:15:42;;;;;;;1.10;1.08;;;-0.70;99.90;;;;;;5074815;28;20136;-81
2022/01/11 08:18:08;;;;;;;1.63;1.52;;;-0.70;99.90;;;;;;5060583;28;20520;-81
2022/01/11 08:20:35;;;;;;;1.00;1.00;;;-0.70;99.90;;;;;;5069563;28;20089;-83
2022/01/11 08:23:00;;;;;;;0.77;0.77;;;-0.60;99.90;;;;;;5058414;28;20041;-82
2022/01/11 08:25:27;;;;;;;1.38;1.30;;;-0.60;99.90;;;;;;5070661;28;20036;-83
2022/01/11 08:27:53;;;;;;;2.90;1.40;;;-0.60;99.90;;;;;;5062194;28;20041;-83
2022/01/11 08:30:18;;;;;;;1.45;1.35;;;-0.60;99.90;;;;;;5076544;28;20033;-83
2022/01/11 08:32:44;;;;;;;0.82;0.82;;;-0.50;99.90;;;;;;5074925;28;20048;-83
2022/01/11 08:35:10;;;;;;;2.05;1.85;;;-0.50;99.90;;;;;;5079816;28;20507;-83
2022/01/11 08:37:36;;;;;;;1.40;1.27;;;-0.50;99.90;;;;;;5068044;28;20068;-84
2022/01/11 08:40:03;;;;;;;5.28;3.10;;;-0.50;99.90;;;;;;5073980;28;20033;-82
2022/01/11 08:42:29;;;;;;;1.20;1.10;;;-0.40;99.90;;;;;;5071075;28;20052;-81
2022/01/11 08:44:55;;;;;;;1.30;1.20;;;-0.40;99.90;;;;;;5050981;28;20108;-82
2022/01/11 08:47:21;;;;;;;3.20;2.25;;;-0.40;99.90;;;;;;5072567;28;20055;-82
2022/01/11 08:49:47;;;;;;;1.00;1.00;;;-0.40;99.90;;;;;;5070909;28;20044;-82
2022/01/11 08:52:13;;;;;;;2.70;2.45;;;-0.40;99.90;;;;;;5070473;28;20100;-81
2022/01/11 08:54:39;;;;;;;1.05;1.05;;;-0.40;99.90;;;;;;5071856;28;20052;-81
2022/01/11 08:57:05;;;;;;;1.40;1.30;;;-0.40;99.90;;;;;;5075462;28;20040;-81
2022/01/11 08:59:32;;;;;;;2.70;2.45;;;-0.40;99.90;;;;;;5078193;28;20037;-82
2022/01/11 09:02:00;;;;;;;1.00;1.00;;;-0.40;99.90;;;;;;5073132;28;20083;-82
2022/01/11 09:04:27;;;;;;;1.30;1.20;;;-0.40;99.90;;;;;;5078096;28;20036;-81
2022/01/11 09:06:57;;;;;;;1.10;1.10;;;-0.40;99.90;;;;;;5074583;28;20072;-82
2022/01/11 09:09:23;;;;;;;1.08;1.08;;;-0.40;99.90;;;;;;5077050;28;20140;-80
2022/01/11 09:11:51;;;;;;;6.93;2.78;;;;;;;;;;5072984;28;20612;-81
2022/01/11 09:14:17;;;;;;;0.80;0.80;;;-0.40;99.90;;;;;;5059087;28;20103;-81
2022/01/11 09:16:42;;;;;;;0.90;0.90;;;-0.40;99.90;;;;;;5077420;28;20033;-80
2022/01/11 09:19:08;;;;;;;2.85;2.38;;;-0.40;99.90;;;;;;5076833;28;20051;-81
2022/01/11 09:21:34;;;;;;;2.03;1.92;;;-0.40;99.90;;;;;;5070820;28;20067;-81
2022/01/11 09:24:00;;;;;;;1.10;1.00;;;-0.40;99.90;;;;;;5073842;28;20123;-81
2022/01/11 09:26:26;;;;;;;1.00;1.00;;;-0.40;99.90;;;;;;5069763;28;20595;-82
2022/01/11 09:28:52;;;;;;;1.10;1.08;;;-0.40;99.90;;;;;;5072721;28;20045;-81
2022/01/11 09:31:17;;;;;;;1.20;1.15;;;-0.40;99.90;;;;;;5059046;28;20040;-81
2022/01/11 09:33:43;;;;;;;1.55;1.42;;;-0.40;99.90;;;;;;5054396;28;20052;-81
2022/01/11 09:36:09;;;;;;;1.00;1.00;;;-0.40;99.90;;;;;;5056330;28;20079;-82
2022/01/11 09:38:34;;;;;;;2.10;2.00;;;-0.40;99.90;;;;;;5078264;28;20036;-81
2022/01/11 09:41:01;;;;;;;1.85;1.75;;;-0.30;99.90;;;;;;5077748;28;20048;-81
2022/01/11 09:43:28;;;;;;;1.00;1.00;;;-0.30;99.90;;;;;;5076150;28;20044;-81
2022/01/11 09:45:55;;;;;;;3.05;1.88;;;-0.30;99.90;;;;;;5054162;28;20178;-81
2022/01/11 09:48:24;;;;;;;3.83;1.38;;;-0.20;99.90;;;;;;5071888;28;20060;-82
2022/01/11 09:50:51;;;;;;;1.10;1.08;;;-0.20;99.90;;;;;;5070846;28;20041;-81
2022/01/11 09:53:17;;;;;;;1.13;1.05;;;-0.20;99.90;;;;;;5073328;28;20041;-81
2022/01/11 09:55:44;;;;;;;2.10;1.92;;;-0.20;99.90;;;;;;5074065;28;20072;-81
2022/01/11 09:58:11;;;;;;;1.13;1.02;;;-0.20;99.90;;;;;;5074515;28;20045;-80
2022/01/11 10:00:38;;;;;;;1.52;1.42;;;-0.20;99.90;;;;;;5072977;28;20072;-81
2022/01/11 10:03:05;;;;;;;0.88;0.88;;;-0.10;99.90;;;;;;5071189;28;20040;-81
2022/01/11 10:05:32;;;;;;;3.25;2.45;;;-0.20;99.90;;;;;;5071564;28;20039;-82
2022/01/11 10:07:59;;;;;;;1.02;1.02;;;-0.10;99.90;;;;;;5071708;28;20051;-81
2022/01/11 10:10:26;;;;;;;1.15;1.10;;;-0.10;99.90;;;;;;5075430;28;20044;-81
2022/01/11 10:12:58;;;;;;;1.40;1.30;;;-0.10;99.90;;;;;;5075208;28;20037;-81
2022/01/11 10:15:32;;;;;;;1.33;1.23;;;-0.10;99.90;;;;;;5074149;28;20055;-82
2022/01/11 10:17:58;;;;;;;1.67;1.58;;;-0.10;99.90;;;;;;5072386;28;20055;-80
2022/01/11 10:20:25;;;;;;;1.48;1.40;;;0.00;99.90;;;;;;5068442;28;20040;-82
2022/01/11 10:23:00;;;;;;;1.00;1.00;;;-0.10;99.90;;;;;;5071719;28;20092;-82
2022/01/11 10:25:28;;;;;;;2.00;1.30;;;-0.10;99.90;;;;;;5067705;28;20037;-82
2022/01/11 10:27:59;;;;;;;1.33;1.23;;;-0.10;99.90;;;;;;5075210;28;20076;-81
2022/01/11 10:30:26;;;;;;;1.10;1.10;;;-0.10;99.90;;;;;;5070164;28;20072;-81
2022/01/11 10:32:55;;;;;;;1.45;1.35;;;0.00;99.90;;;;;;5074858;28;20048;-81
2022/01/11 10:35:42;;;;;;;1.63;1.52;;;0.00;99.90;;;;;;5074096;28;20041;-81
2022/01/11 10:38:10;;;;;;;1.30;1.25;;;-0.10;99.90;;;;;;5072788;28;20057;-80
2022/01/11 10:40:40;;;;;;;1.30;1.20;;;-0.10;99.90;;;;;;5074731;28;20094;-81
2022/01/11 10:43:08;;;;;;;1.30;1.20;;;0.00;99.90;;;;;;5077516;28;20041;-81
2022/01/11 10:45:36;;;;;;;0.95;0.90;;;0.00;99.90;;;;;;5075109;28;20033;-82
2022/01/11 10:48:05;;;;;;;1.80;1.70;;;0.20;99.90;;;;;;5072006;28;20067;-82
2022/01/11 10:50:37;;;;;;;0.90;0.90;;;-0.10;99.90;;;;;;5074338;28;20045;-81
2022/01/11 10:53:12;;;;;;;1.00;0.95;;;-0.10;99.90;;;;;;5072001;28;20076;-82
2022/01/11 10:55:38;;;;;;;1.08;1.05;;;0.00;99.90;;;;;;5070026;28;20148;-82
2022/01/11 10:58:10;;;;;;;1.10;1.10;;;-0.10;99.90;;;;;;5066771;28;20124;-82
2022/01/11 11:00:46;;;;;;;1.10;1.10;;;0.00;99.90;;;;;;5072056;28;20071;-83
2022/01/11 11:03:26;;;;;;;1.30;1.20;;;0.00;99.90;;;;;;5074007;28;20111;-83
2022/01/11 11:05:55;;;;;;;2.80;1.73;;;0.00;99.90;;;;;;5070596;28;20089;-82
2022/01/11 11:08:31;;;;;;;0.90;0.90;;;0.10;99.90;;;;;;5075301;28;20086;-82
2022/01/11 11:10:56;;;;;;;1.48;1.38;;;0.10;99.90;;;;;;5073153;28;20049;-77
2022/01/11 11:13:34;;;;;;;0.98;0.98;;;0.20;99.90;;;;;;5072172;28;20037;-79
2022/01/11 11:16:09;;;;;;;2.30;2.10;;;0.20;99.90;;;;;;5072771;28;20698;-80
2022/01/11 11:18:39;;;;;;;1.45;1.35;;;0.30;99.90;;;;;;5055806;28;20048;-82
2022/01/11 11:21:26;;;;;;;1.33;1.23;;;0.40;99.90;;;;;;5067675;28;20040;-84
2022/01/11 11:24:01;;;;;;;1.20;1.10;;;0.50;99.90;;;;;;5057282;28;20788;-83
2022/01/11 11:26:29;;;;;;;1.63;1.52;;;0.50;99.90;;;;;;5064586;28;20033;-83
2022/01/11 11:28:55;;;;;;;1.48;1.38;;;0.60;99.90;;;;;;5070830;28;20059;-83
2022/01/11 11:31:21;;;;;;;0.93;0.93;;;0.60;99.90;;;;;;5066322;28;20040;-83
2022/01/11 11:33:50;;;;;;;1.35;1.25;;;0.70;99.90;;;;;;5051226;28;20037;-82
2022/01/11 11:36:18;;;;;;;1.90;1.80;;;0.90;99.90;;;;;;5070261;28;20036;-82
2022/01/11 11:38:52;;;;;;;1.10;1.10;;;0.80;99.90;;;;;;5065444;28;20048;-83
2022/01/11 11:41:19;;;;;;;0.80;0.80;;;0.90;99.90;;;;;;5064467;28;20179;-82
2022/01/11 11:44:04;;;;;;;1.02;0.98;;;1.00;99.90;;;;;;5066604;28;20155;-81
2022/01/11 11:46:53;;;;;;;1.92;1.45;;;1.10;99.90;;;;;;5072334;28;20070;-82
2022/01/11 11:49:44;;;;;;;1.30;1.20;;;1.20;99.90;;;;;;5048961;28;20112;-82
2022/01/11 11:52:26;;;;;;;0.80;0.80;;;1.20;99.90;;;;;;5046129;28;20152;-84
2022/01/11 11:54:53;;;;;;;1.33;1.23;;;1.40;99.90;;;;;;5068408;28;20071;-84
2022/01/11 11:57:20;;;;;;;1.17;1.10;;;1.40;99.90;;;;;;5075426;28;20150;-83
2022/01/11 11:59:55;;;;;;;1.20;1.10;;;1.50;99.90;;;;;;5077030;28;20045;-81
2022/01/11 12:02:40;;;;;;;2.35;1.88;;;1.60;99.90;;;;;;5074021;28;20048;-81
2022/01/11 12:05:10;;;;;;;1.98;1.88;;;1.60;99.90;;;;;;5072478;28;20067;-82
2022/01/11 12:07:42;;;;;;;1.75;1.65;;;1.70;99.90;;;;;;5062411;28;20222;-83
2022/01/11 12:10:25;;;;;;;0.73;0.73;;;1.70;99.90;;;;;;5071658;28;20044;-82
2022/01/11 12:12:54;;;;;;;3.25;2.03;;;1.80;99.90;;;;;;5074692;28;20040;-83
2022/01/11 12:15:22;;;;;;;1.00;1.00;;;1.70;99.90;;;;;;5062413;28;20048;-82
2022/01/11 12:17:57;;;;;;;1.40;1.30;;;1.80;99.90;;;;;;5066484;28;20037;-83
2022/01/11 12:20:43;;;;;;;0.90;0.90;;;1.80;99.90;;;;;;5073518;28;20536;-82
2022/01/11 12:23:13;;;;;;;0.70;0.70;;;1.80;99.90;;;;;;5051860;28;20039;-83
2022/01/11 12:25:43;;;;;;;3.58;2.85;;;1.80;99.90;;;;;;5074550;28;20085;-83
2022/01/11 12:28:18;;;;;;;0.90;0.90;;;1.80;99.90;;;;;;5057201;28;20041;-83
2022/01/11 12:30:44;;;;;;;1.08;1.08;;;1.80;99.90;;;;;;5073892;28;20056;-83
2022/01/11 12:33:19;;;;;;;3.00;2.50;;;1.80;99.90;;;;;;5056236;28;20131;-83
2022/01/11 12:35:54;;;;;;;1.35;1.25;;;1.80;99.90;;;;;;5057509;28;20045;-82
2022/01/11 12:38:20;;;;;;;1.30;1.20;;;1.80;99.90;;;;;;5072444;28;20044;-83
2022/01/11 12:40:47;;;;;;;0.90;0.90;;;1.80;99.90;;;;;;5072321;28;20127;-82
2022/01/11 12:43:19;;;;;;;1.08;1.02;;;1.80;99.90;;;;;;5059027;28;20043;-83
2022/01/11 12:46:04;;;;;;;0.80;0.80;;;1.80;99.90;;;;;;5059057;28;20128;-83
2022/01/11 12:48:53;;;;;;;1.00;1.00;;;1.80;99.90;;;;;;5074078;28;20072;-83
2022/01/11 12:51:19;;;;;;;1.15;1.10;;;1.80;99.90;;;;;;5072451;28;20045;-84
2022/01/11 12:53:46;;;;;;;3.25;2.30;;;1.80;99.90;;;;;;5071841;28;20045;-84
2022/01/11 12:56:11;;;;;;;1.05;1.05;;;1.80;99.90;;;;;;5076013;28;20036;-83
2022/01/11 12:58:37;;;;;;;1.35;1.17;;;1.80;99.90;;;;;;5075459;28;20100;-83
2022/01/11 13:01:17;;;;;;;0.85;0.85;;;1.80;99.90;;;;;;5057114;28;20105;-84